Time;durP1;ratioP1;P1;durP2;ratioP2;P2;SDS_P1;SDS_P2;PMS_P1;PMS_P2;Temp;Humidity;BMP_temperature;BMP_pressure;BME280_temperature;BME280_humidity;BME280_pressure;Samples;Min_cycle;Max_cycle;Signal;HPM_P1;HPM_P2
2021/07/28 06:01:55;;;;;;;8.82;5.82;;;;;;;;;;5631785;23;20051;-81
2021/07/28 09:34:21;;;;;;;6.30;4.30;;;;;;;;;;4922154;29;20048;-83
2021/07/28 09:36:54;;;;;;;6.25;5.10;;;;;;;;;;4946084;23;20062;-80
2021/07/28 09:39:25;;;;;;;8.32;4.57;;;;;;;;;;4937685;29;20075;-80
2021/07/28 09:41:53;;;;;;;5.63;4.25;;;;;;;;;;4937620;29;20036;-80
2021/07/28 09:44:33;;;;;;;7.75;4.80;;;;;;;;;;4937418;29;20059;-80
2021/07/28 09:47:11;;;;;;;8.35;4.82;;;;;;;;;;4937739;29;20032;-81
2021/07/28 09:49:42;;;;;;;7.25;4.25;;;;;;;;;;4937618;29;20030;-81
2021/07/28 09:52:18;;;;;;;8.50;4.70;;;;;;;;;;4937436;29;20106;-85
2021/07/28 09:54:44;;;;;;;7.53;4.90;;;;;;;;;;4937488;29;20368;-80
2021/07/28 09:57:14;;;;;;;7.90;5.38;;;;;;;;;;4937322;29;20030;-80
2021/07/28 09:59:44;;;;;;;10.38;6.05;;;;;;;;;;4937306;29;20039;-82
2021/07/28 10:02:12;;;;;;;13.02;5.22;;;;;;;;;;4937520;29;20040;-82
2021/07/28 10:04:39;;;;;;;9.90;5.43;;;;;;;;;;4937079;29;20039;-81
2021/07/28 10:07:04;;;;;;;8.45;5.93;;;;;;;;;;4937351;29;20486;-83
2021/07/28 10:09:34;;;;;;;11.52;6.20;;;;;;;;;;4936967;29;20063;-83
2021/07/28 10:12:00;;;;;;;9.95;5.53;;;;;;;;;;4937156;29;20067;-81
2021/07/28 10:14:27;;;;;;;9.38;4.57;;;;;;;;;;4937589;29;20059;-82
2021/07/28 10:16:52;;;;;;;11.48;5.03;;;;;;;;;;4937035;29;20037;-82
2021/07/28 10:19:19;;;;;;;6.45;5.13;;;;;;;;;;4936929;29;20075;-82
2021/07/28 10:21:45;;;;;;;8.35;5.10;;;;;;;;;;4936942;29;20024;-82
2021/07/28 10:24:12;;;;;;;7.60;5.03;;;;;;;;;;4937324;29;20028;-81
2021/07/28 10:26:51;;;;;;;7.78;5.05;;;;;;;;;;4937010;29;20035;-82
2021/07/28 10:29:17;;;;;;;12.20;5.30;;;;;;;;;;4936289;29;20466;-81
2021/07/28 10:31:51;;;;;;;10.20;5.53;;;;;;;;;;4937016;29;20054;-82
2021/07/28 10:34:22;;;;;;;11.63;5.95;;;;;;;;;;4929431;29;20028;-81
2021/07/28 10:36:49;;;;;;;9.35;5.35;;;;;;;;;;4917586;29;20048;-80
2021/07/28 10:39:34;;;;;;;10.57;5.97;;;;;;;;;;4917890;29;20028;-81
2021/07/28 10:41:59;;;;;;;10.35;5.50;;;;;;;;;;4917803;29;20391;-80
2021/07/28 10:44:25;;;;;;;9.57;5.50;;;;;;;;;;4917617;29;20020;-80
2021/07/28 10:46:53;;;;;;;11.15;5.75;;;;;;;;;;4917447;29;20036;-79
2021/07/28 10:49:34;;;;;;;7.30;4.68;;;;;;;;;;4917817;29;20028;-81
2021/07/28 10:52:00;;;;;;;7.75;4.80;;;;;;;;;;4918169;29;20175;-79
2021/07/28 10:54:48;;;;;;;8.07;5.15;;;;;;;;;;4900610;29;20024;-78
2021/07/28 10:57:33;;;;;;;8.38;5.25;;;;;;;;;;4917481;29;20463;-78
2021/07/28 10:59:59;;;;;;;11.13;5.53;;;;;;;;;;4917264;29;20036;-78
2021/07/28 11:02:38;;;;;;;9.02;5.53;;;;;;;;;;4917771;29;20035;-78
2021/07/28 11:05:26;;;;;;;7.88;5.45;;;;;;;;;;4917429;29;20027;-78
2021/07/28 11:08:07;;;;;;;11.95;5.65;;;;;;;;;;4917272;29;20107;-78
2021/07/28 11:10:37;;;;;;;9.48;5.40;;;;;;;;;;4917177;29;20028;-77
2021/07/28 11:13:33;;;;;;;11.35;5.68;;;;;;;;;;4917439;29;20028;-78
2021/07/28 11:16:16;;;;;;;8.52;5.70;;;;;;;;;;4914200;29;20044;-78
2021/07/28 11:18:46;;;;;;;9.95;5.90;;;;;;;;;;4917129;29;20040;-78
2021/07/28 11:21:29;;;;;;;9.50;5.55;;;;;;;;;;4917358;29;20060;-77
2021/07/28 11:24:02;;;;;;;11.38;6.50;;;;;;;;;;4917233;29;20075;-78
2021/07/28 11:26:38;;;;;;;8.75;6.07;;;;;;;;;;4917236;29;20067;-78
2021/07/28 11:29:14;;;;;;;10.65;5.85;;;;;;;;;;4930994;29;20082;-77
2021/07/28 11:31:42;;;;;;;9.73;5.30;;;;;;;;;;4936361;29;20047;-78
2021/07/28 11:34:13;;;;;;;9.88;6.15;;;;;;;;;;4923046;29;20034;-79
2021/07/28 11:36:40;;;;;;;10.68;5.70;;;;;;;;;;4939952;29;20074;-79
2021/07/28 11:39:14;;;;;;;9.60;6.88;;;;;;;;;;4939471;29;20028;-79
2021/07/28 11:41:39;;;;;;;9.02;5.05;;;;;;;;;;4939837;29;20141;-79
2021/07/28 11:44:05;;;;;;;10.65;5.80;;;;;;;;;;4939899;29;20024;-84
2021/07/28 16:50:54;;;;;;;12.60;7.72;;;;;;;;;;5049834;23;20048;-79
2021/07/28 16:53:19;;;;;;;10.10;6.15;;;;;;;;;;4900768;29;20045;-78
2021/07/28 16:55:44;;;;;;;13.45;7.10;;;;;;;;;;4900949;29;20036;-78
2021/07/28 16:58:10;;;;;;;9.93;6.60;;;;;;;;;;4890616;29;20033;-78
2021/07/28 17:00:36;;;;;;;9.90;7.50;;;;;;;;;;4881851;29;20052;-78
2021/07/28 17:03:01;;;;;;;15.13;8.23;;;;;;;;;;4881889;29;20029;-78
2021/07/28 17:05:28;;;;;;;9.77;6.88;;;;;;;;;;4882069;29;20065;-78
2021/07/28 17:07:54;;;;;;;14.60;7.70;;;;;;;;;;4881963;29;20025;-78
2021/07/28 17:10:20;;;;;;;12.10;6.78;;;;;;;;;;4881847;29;20425;-78
2021/07/28 17:12:46;;;;;;;15.07;6.90;;;;;;;;;;4881961;29;20025;-78
2021/07/28 17:15:12;;;;;;;16.08;7.80;;;;;;;;;;4881895;29;20048;-78
2021/07/28 17:17:39;;;;;;;14.45;7.93;;;;;;;;;;4881548;29;20060;-78
2021/07/28 17:20:09;;;;;;;11.40;7.30;;;;;;;;;;4881845;29;20465;-78
2021/07/28 17:22:36;;;;;;;12.52;6.30;;;;;;;;;;4881638;29;20037;-78
2021/07/28 17:25:09;;;;;;;12.27;6.65;;;;;;;;;;4881723;29;20115;-77
2021/07/28 17:27:35;;;;;;;14.18;7.25;;;;;;;;;;4891798;29;20474;-79
2021/07/28 17:30:03;;;;;;;13.00;6.82;;;;;;;;;;4887047;29;20373;-80
2021/07/28 17:32:29;;;;;;;13.45;6.82;;;;;;;;;;4880277;29;20033;-83
2021/07/28 17:34:54;;;;;;;15.23;7.78;;;;;;;;;;4878623;29;20076;-82
2021/07/28 17:37:40;;;;;;;8.93;6.63;;;;;;;;;;4880574;29;20057;-80
2021/07/28 17:40:13;;;;;;;15.27;7.82;;;;;;;;;;4880863;29;20041;-78
2021/07/28 17:42:39;;;;;;;11.30;7.95;;;;;;;;;;4880813;29;20029;-78
2021/07/28 17:45:06;;;;;;;15.38;7.93;;;;;;;;;;4880759;29;20092;-82
2021/07/28 17:47:31;;;;;;;12.32;8.90;;;;;;;;;;4880954;29;20064;-79
2021/07/28 17:49:56;;;;;;;12.65;7.55;;;;;;;;;;4880938;29;20477;-79
2021/07/28 17:52:22;;;;;;;12.13;7.20;;;;;;;;;;4896582;29;20080;-78
2021/07/28 17:54:47;;;;;;;13.07;6.55;;;;;;;;;;4899272;29;20056;-79
2021/07/28 17:57:14;;;;;;;12.50;6.93;;;;;;;;;;4912209;29;20071;-81
2021/07/28 17:59:39;;;;;;;12.57;7.32;;;;;;;;;;4918565;29;20024;-81
2021/07/28 18:02:05;;;;;;;14.48;6.72;;;;;;;;;;4918404;29;20031;-81
2021/07/28 18:04:34;;;;;;;13.45;6.60;;;;;;;;;;4918092;29;20036;-84
2021/07/28 18:07:01;;;;;;;11.10;6.55;;;;;;;;;;4917883;29;20059;-81
2021/07/28 18:09:26;;;;;;;10.10;6.30;;;;;;;;;;4908095;29;20444;-79
2021/07/28 18:11:52;;;;;;;13.93;7.68;;;;;;;;;;4899260;29;20060;-81
2021/07/28 18:14:18;;;;;;;11.13;6.53;;;;;;;;;;4899332;29;20476;-83
2021/07/28 18:16:44;;;;;;;8.95;6.30;;;;;;;;;;4911971;29;20072;-76
2021/07/28 18:19:11;;;;;;;9.52;6.50;;;;;;;;;;4917877;29;20020;-81
2021/07/28 18:21:37;;;;;;;10.68;6.50;;;;;;;;;;4917843;29;20036;-76
2021/07/28 18:24:02;;;;;;;10.15;6.40;;;;;;;;;;4917753;29;20024;-77
2021/07/28 18:26:28;;;;;;;8.43;6.10;;;;;;;;;;4917773;29;20039;-78
2021/07/28 18:28:53;;;;;;;11.57;6.32;;;;;;;;;;4917605;29;20035;-83
2021/07/28 18:31:19;;;;;;;11.45;6.53;;;;;;;;;;4917780;29;20035;-82
2021/07/28 18:33:45;;;;;;;10.00;6.18;;;;;;;;;;4917790;29;20031;-83
2021/07/28 18:36:10;;;;;;;9.88;6.38;;;;;;;;;;4917737;29;20025;-76
2021/07/28 18:38:37;;;;;;;13.35;6.97;;;;;;;;;;4917360;29;20024;-77
2021/07/28 18:41:03;;;;;;;10.57;6.60;;;;;;;;;;4917178;29;20043;-80
2021/07/28 18:43:28;;;;;;;9.50;6.47;;;;;;;;;;4908097;29;20017;-81
2021/07/28 18:45:57;;;;;;;11.10;6.10;;;;;;;;;;4898707;29;20132;-77
2021/07/28 18:48:26;;;;;;;12.17;6.90;;;;;;;;;;4898563;29;20098;-83
2021/07/28 18:50:52;;;;;;;11.30;6.28;;;;;;;;;;4898268;29;20048;-77
2021/07/28 18:53:18;;;;;;;12.18;6.03;;;;;;;;;;4908131;29;20035;-77
2021/07/28 18:55:43;;;;;;;11.95;9.18;;;;;;;;;;4910993;29;20111;-77
2021/07/28 18:58:09;;;;;;;15.43;8.45;;;;;;;;;;4897840;29;20020;-77
2021/07/28 19:00:35;;;;;;;11.52;6.43;;;;;;;;;;4898077;29;20448;-78
2021/07/28 19:03:02;;;;;;;10.10;7.95;;;;;;;;;;4898518;29;20571;-77
2021/07/28 19:05:27;;;;;;;13.38;7.75;;;;;;;;;;4898402;29;20115;-77
2021/07/28 19:07:52;;;;;;;13.80;6.90;;;;;;;;;;4898230;29;20059;-77
2021/07/28 19:10:18;;;;;;;11.73;6.50;;;;;;;;;;4898587;29;20463;-80
2021/07/28 19:12:44;;;;;;;10.65;6.38;;;;;;;;;;4896365;29;20024;-78
2021/07/28 19:15:13;;;;;;;12.70;7.50;;;;;;;;;;4898671;29;20499;-77
2021/07/28 19:17:38;;;;;;;9.68;6.53;;;;;;;;;;4898372;29;20107;-77
2021/07/28 19:20:04;;;;;;;10.55;5.63;;;;;;;;;;4898516;29;20056;-78
2021/07/28 19:22:30;;;;;;;10.20;6.40;;;;;;;;;;4898276;29;20084;-79
2021/07/28 19:24:55;;;;;;;11.38;6.75;;;;;;;;;;4898364;29;20060;-78
2021/07/28 19:27:22;;;;;;;11.75;6.40;;;;;;;;;;4898619;29;20101;-85
2021/07/28 19:29:47;;;;;;;12.40;6.50;;;;;;;;;;4881632;29;20040;-78
2021/07/28 19:32:13;;;;;;;11.48;6.95;;;;;;;;;;4898336;29;20036;-78
2021/07/28 19:34:38;;;;;;;9.95;6.15;;;;;;;;;;4898347;29;20025;-79
2021/07/28 19:37:04;;;;;;;10.70;6.28;;;;;;;;;;4898146;29;20040;-79
2021/07/28 19:39:30;;;;;;;12.60;7.07;;;;;;;;;;4898510;29;20039;-79
2021/07/28 19:41:55;;;;;;;8.98;6.90;;;;;;;;;;4898261;29;20026;-79
2021/07/28 19:44:21;;;;;;;7.68;6.68;;;;;;;;;;4898352;29;20032;-79
2021/07/28 19:46:46;;;;;;;8.95;6.22;;;;;;;;;;4898354;29;20029;-79
2021/07/28 19:49:12;;;;;;;8.82;6.47;;;;;;;;;;4898148;29;20111;-80
2021/07/28 19:51:38;;;;;;;12.50;6.40;;;;;;;;;;4897844;29;20044;-80
2021/07/28 19:54:03;;;;;;;12.77;6.28;;;;;;;;;;4900013;29;20040;-79
2021/07/28 19:56:31;;;;;;;9.13;6.28;;;;;;;;;;4902040;29;20033;-80
2021/07/28 19:58:57;;;;;;;8.52;6.20;;;;;;;;;;4901933;29;20551;-81
2021/07/28 20:01:22;;;;;;;10.48;6.53;;;;;;;;;;4901857;29;20065;-80
2021/07/28 20:03:49;;;;;;;13.40;8.73;;;;;;;;;;4902028;29;20108;-80
2021/07/28 20:06:15;;;;;;;11.60;6.95;;;;;;;;;;4901393;29;20415;-80
2021/07/28 20:08:40;;;;;;;9.40;6.80;;;;;;;;;;4901814;29;20108;-80
2021/07/28 20:11:06;;;;;;;10.50;6.18;;;;;;;;;;4884754;29;20028;-80
2021/07/28 20:13:31;;;;;;;13.88;7.20;;;;;;;;;;4901238;29;20033;-80
2021/07/28 20:15:57;;;;;;;9.43;6.40;;;;;;;;;;4901296;29;20052;-80
2021/07/28 20:18:23;;;;;;;12.43;6.18;;;;;;;;;;4901573;29;20033;-80
2021/07/28 20:20:49;;;;;;;9.88;5.60;;;;;;;;;;4901275;29;20036;-80
2021/07/28 20:23:14;;;;;;;12.13;6.15;;;;;;;;;;4904491;29;20029;-80
2021/07/28 20:25:42;;;;;;;10.55;6.10;;;;;;;;;;4907362;29;20547;-80
2021/07/28 20:28:08;;;;;;;10.00;5.95;;;;;;;;;;4901505;29;20476;-80
2021/07/28 20:30:34;;;;;;;10.80;6.82;;;;;;;;;;4901473;29;20044;-80
2021/07/28 20:33:07;;;;;;;13.75;6.63;;;;;;;;;;4884448;29;20029;-81
2021/07/28 20:35:33;;;;;;;9.63;6.70;;;;;;;;;;4901390;29;20037;-81
2021/07/28 20:37:59;;;;;;;14.10;7.15;;;;;;;;;;4901095;29;20040;-81
2021/07/28 20:40:26;;;;;;;10.18;6.72;;;;;;;;;;4901272;29;20029;-81
2021/07/28 20:42:54;;;;;;;11.73;6.82;;;;;;;;;;4900942;29;20077;-81
2021/07/28 20:45:20;;;;;;;13.80;7.67;;;;;;;;;;4901048;29;20087;-80
2021/07/28 20:47:45;;;;;;;11.23;6.97;;;;;;;;;;4900949;29;20115;-80
2021/07/28 20:50:11;;;;;;;11.88;6.38;;;;;;;;;;4901053;29;20238;-81
2021/07/28 20:52:37;;;;;;;11.07;6.90;;;;;;;;;;4901072;29;20047;-81
2021/07/28 20:55:05;;;;;;;12.18;7.55;;;;;;;;;;4900602;29;20052;-81
2021/07/28 20:57:30;;;;;;;11.23;6.50;;;;;;;;;;4900583;29;20032;-81
2021/07/28 20:59:56;;;;;;;10.15;6.57;;;;;;;;;;4900727;29;20025;-81
2021/07/28 21:02:24;;;;;;;7.97;6.15;;;;;;;;;;4900827;29;20072;-81
2021/07/28 21:04:50;;;;;;;8.88;6.22;;;;;;;;;;4899392;29;20040;-80
2021/07/28 21:07:21;;;;;;;10.23;6.32;;;;;;;;;;4900847;29;20036;-81
2021/07/28 21:09:47;;;;;;;8.27;6.35;;;;;;;;;;4900989;29;20080;-81
2021/07/28 21:12:13;;;;;;;9.60;6.28;;;;;;;;;;4900764;29;20066;-80
2021/07/28 21:14:38;;;;;;;10.38;6.82;;;;;;;;;;4900585;29;20038;-81
2021/07/28 21:17:04;;;;;;;12.27;6.70;;;;;;;;;;4900148;29;20115;-81
2021/07/28 21:19:30;;;;;;;8.50;6.20;;;;;;;;;;4883614;29;20036;-81
2021/07/28 21:21:55;;;;;;;8.68;5.97;;;;;;;;;;4883375;29;20127;-80
2021/07/28 21:24:21;;;;;;;10.68;6.75;;;;;;;;;;4900395;29;20036;-81
2021/07/28 21:26:47;;;;;;;8.77;6.43;;;;;;;;;;4900397;29;20032;-80
2021/07/28 21:29:12;;;;;;;13.60;6.55;;;;;;;;;;4900073;29;20423;-81
2021/07/28 21:31:38;;;;;;;8.32;6.53;;;;;;;;;;4900034;29;20476;-80
2021/07/28 21:34:05;;;;;;;9.65;6.30;;;;;;;;;;4883941;29;20036;-81
2021/07/28 21:36:31;;;;;;;12.90;6.45;;;;;;;;;;4900080;29;20033;-81
2021/07/28 21:38:58;;;;;;;10.75;7.07;;;;;;;;;;4900045;29;20107;-81
2021/07/28 21:41:23;;;;;;;9.63;7.50;;;;;;;;;;4900001;29;20035;-80
2021/07/28 21:43:51;;;;;;;15.05;7.80;;;;;;;;;;4899878;29;20029;-80
2021/07/28 21:46:17;;;;;;;12.57;6.30;;;;;;;;;;4900027;29;20066;-80
2021/07/28 21:48:43;;;;;;;12.00;7.18;;;;;;;;;;4899731;29;20527;-80
2021/07/28 21:51:41;;;;;;;11.27;7.70;;;;;;;;;;4899862;29;20113;-80
2021/07/28 21:54:13;;;;;;;10.30;6.65;;;;;;;;;;4896653;29;20040;-83
2021/07/28 21:56:43;;;;;;;10.07;6.57;;;;;;;;;;4899121;29;20028;-84
2021/07/28 21:59:33;;;;;;;9.75;6.95;;;;;;;;;;4895756;29;20052;-84
